createdAt,value
2022-10-07T00:01:58.596Z,15.10
2022-10-07T00:04:25.411Z,15.20
2022-10-07T00:06:52.179Z,15.20
2022-10-07T00:09:18.873Z,15.10
2022-10-07T00:11:45.642Z,15.20
2022-10-07T00:14:12.494Z,15.20
2022-10-07T00:16:41.021Z,15.10
2022-10-07T00:19:10.615Z,15.10
2022-10-07T00:21:38.113Z,15.10
2022-10-07T00:24:05.651Z,15.20
2022-10-07T00:26:33.418Z,15.10
2022-10-07T00:29:00.830Z,15.10
2022-10-07T00:31:29.254Z,15.20
2022-10-07T00:33:56.445Z,15.30
2022-10-07T00:36:27.452Z,15.20
2022-10-07T00:38:58.127Z,15.10
2022-10-07T00:41:26.443Z,15.10
2022-10-07T00:43:53.053Z,15.10
2022-10-07T00:46:19.658Z,15.20
2022-10-07T00:48:46.835Z,15.10
2022-10-07T00:51:17.116Z,15.00
2022-10-07T00:53:44.820Z,15.10
2022-10-07T00:56:12.001Z,15.10
2022-10-07T00:58:39.532Z,15.10
2022-10-07T01:01:06.218Z,15.10
2022-10-07T01:03:34.732Z,15.10
2022-10-07T01:06:02.296Z,15.10
2022-10-07T01:08:29.064Z,15.00
2022-10-07T01:11:13.928Z,15.00
2022-10-07T01:13:56.346Z,14.90
2022-10-07T01:16:29.670Z,14.90
2022-10-07T01:19:15.251Z,14.90
2022-10-07T01:21:54.102Z,14.90
2022-10-07T01:24:29.140Z,14.90
2022-10-07T01:27:07.849Z,14.80
2022-10-07T01:29:43.891Z,14.90
2022-10-07T01:32:17.355Z,14.90
2022-10-07T01:34:45.620Z,14.90
2022-10-07T01:37:15.052Z,14.80
2022-10-07T01:39:49.937Z,14.90
2022-10-07T01:42:17.083Z,14.80
2022-10-07T01:44:44.758Z,14.80
2022-10-07T01:47:11.341Z,14.70
2022-10-07T01:49:38.090Z,14.60
2022-10-07T01:52:08.049Z,14.60
2022-10-07T01:54:51.288Z,14.40
2022-10-07T01:57:25.828Z,14.50
2022-10-07T02:00:07.468Z,14.20
2022-10-07T02:02:34.257Z,14.00
2022-10-07T02:05:06.691Z,13.90
2022-10-07T02:07:48.435Z,13.80
2022-10-07T02:10:24.408Z,13.70
2022-10-07T02:12:51.010Z,13.70
2022-10-07T02:15:21.714Z,13.50
2022-10-07T02:17:56.203Z,13.40
2022-10-07T02:20:25.320Z,13.40
2022-10-07T02:22:53.408Z,13.30
2022-10-07T02:25:21.041Z,13.20
2022-10-07T02:27:49.823Z,13.20
2022-10-07T02:30:18.559Z,13.10
2022-10-07T02:32:47.650Z,13.00
2022-10-07T02:35:34.482Z,12.90
2022-10-07T02:38:03.919Z,12.80
2022-10-07T02:40:39.204Z,12.90
2022-10-07T02:43:28.915Z,12.70
2022-10-07T02:45:59.654Z,12.60
2022-10-07T02:48:28.265Z,13.20
2022-10-07T02:50:58.291Z,12.60
2022-10-07T02:53:26.956Z,12.40
2022-10-07T02:55:54.349Z,13.00
2022-10-07T02:58:21.350Z,12.30
2022-10-07T03:00:52.896Z,12.20
2022-10-07T03:03:19.574Z,12.20
2022-10-07T03:05:48.288Z,12.20
2022-10-07T03:08:15.094Z,12.10
2022-10-07T03:10:41.832Z,12.00
2022-10-07T03:13:08.684Z,12.00
2022-10-07T03:15:41.860Z,11.90
2022-10-07T03:18:26.096Z,11.90
2022-10-07T03:20:55.238Z,11.90
2022-10-07T03:23:25.038Z,12.20
2022-10-07T03:25:52.125Z,11.70
2022-10-07T03:28:22.703Z,11.70
2022-10-07T03:30:50.302Z,11.60
2022-10-07T03:33:17.827Z,11.50
2022-10-07T03:35:44.820Z,11.50
2022-10-07T03:38:12.100Z,11.50
2022-10-07T03:40:38.864Z,11.40
2022-10-07T03:43:05.872Z,11.30
2022-10-07T03:45:32.503Z,11.30
2022-10-07T03:47:59.562Z,11.20
2022-10-07T03:50:26.832Z,11.20
2022-10-07T03:52:53.425Z,11.10
2022-10-07T03:55:20.021Z,11.60
2022-10-07T03:57:59.741Z,11.00
2022-10-07T04:00:26.901Z,11.00
2022-10-07T04:02:53.747Z,10.90
2022-10-07T04:05:20.685Z,10.90
2022-10-07T04:07:48.335Z,11.80
2022-10-07T04:10:16.837Z,10.80
2022-10-07T04:12:43.935Z,10.80
2022-10-07T04:15:13.669Z,10.70
2022-10-07T04:17:40.803Z,10.70
2022-10-07T04:20:07.867Z,10.70
2022-10-07T04:22:34.528Z,10.60
2022-10-07T04:25:19.942Z,10.60
2022-10-07T04:27:51.850Z,10.60
2022-10-07T04:30:19.511Z,10.60
2022-10-07T04:32:46.161Z,10.50
2022-10-07T04:35:12.713Z,10.50
2022-10-07T04:37:39.291Z,10.50
2022-10-07T04:40:06.085Z,10.40
2022-10-07T04:42:51.436Z,10.40
2022-10-07T04:45:18.060Z,10.50
2022-10-07T04:47:45.502Z,10.60
2022-10-07T04:50:12.622Z,10.60
2022-10-07T04:52:42.741Z,10.70
2022-10-07T04:55:14.241Z,10.80
2022-10-07T04:57:41.358Z,10.90
2022-10-07T05:00:09.134Z,11.00
2022-10-07T05:02:36.256Z,11.10
2022-10-07T05:05:03.712Z,11.10
2022-10-07T05:07:31.904Z,11.10
2022-10-07T05:09:58.853Z,11.20
2022-10-07T05:12:26.629Z,11.20
2022-10-07T05:14:53.264Z,11.20
2022-10-07T05:17:20.333Z,11.30
2022-10-07T05:19:47.168Z,11.20
2022-10-07T05:22:13.735Z,11.30
2022-10-07T05:24:40.294Z,11.20
2022-10-07T05:27:06.856Z,11.30
2022-10-07T05:29:33.939Z,11.30
2022-10-07T05:32:04.719Z,11.40
2022-10-07T05:34:32.684Z,11.40
2022-10-07T05:36:59.413Z,11.50
2022-10-07T05:39:26.025Z,11.50
2022-10-07T05:41:52.671Z,11.60
2022-10-07T05:44:19.232Z,11.60
2022-10-07T05:46:45.833Z,11.70
2022-10-07T05:49:12.543Z,11.70
2022-10-07T05:51:39.185Z,11.80
2022-10-07T05:54:05.768Z,11.80
2022-10-07T05:56:32.485Z,11.70
2022-10-07T05:58:59.097Z,11.70
2022-10-07T06:01:27.640Z,11.70
2022-10-07T06:03:57.352Z,11.80
2022-10-07T06:06:25.026Z,11.80
2022-10-07T06:08:52.509Z,11.80
2022-10-07T06:11:37.795Z,11.80
2022-10-07T06:14:05.130Z,11.90
2022-10-07T06:16:31.944Z,11.90
2022-10-07T06:18:59.807Z,11.90
2022-10-07T06:21:29.560Z,12.10
2022-10-07T06:23:56.989Z,12.10
2022-10-07T06:26:23.826Z,12.30
2022-10-07T06:28:50.673Z,12.40
2022-10-07T06:31:22.417Z,12.50
2022-10-07T06:33:49.731Z,12.50
2022-10-07T06:36:16.345Z,12.60
2022-10-07T06:38:46.591Z,12.70
2022-10-07T06:41:13.276Z,12.60
2022-10-07T06:43:39.971Z,12.70
2022-10-07T06:46:07.921Z,12.70
2022-10-07T06:48:35.152Z,14.00
2022-10-07T06:51:06.010Z,12.60
2022-10-07T06:53:32.776Z,12.50
2022-10-07T06:56:03.018Z,12.40
2022-10-07T06:58:30.004Z,12.40
2022-10-07T07:00:57.610Z,12.50
2022-10-07T07:03:24.508Z,12.60
2022-10-07T07:05:54.564Z,12.80
2022-10-07T07:08:27.707Z,12.80
2022-10-07T07:10:54.705Z,12.80
2022-10-07T07:13:21.420Z,12.70
2022-10-07T07:15:54.812Z,13.20
2022-10-07T07:18:21.482Z,12.70
2022-10-07T07:20:48.043Z,12.90
2022-10-07T07:23:14.602Z,14.20
2022-10-07T07:25:45.988Z,13.00
2022-10-07T07:28:14.309Z,13.10
2022-10-07T07:30:41.371Z,13.20
2022-10-07T07:33:08.378Z,13.30
2022-10-07T07:35:37.447Z,13.30
2022-10-07T07:38:04.170Z,13.50
2022-10-07T07:40:30.798Z,13.40
2022-10-07T07:42:57.370Z,13.70
2022-10-07T07:45:24.443Z,13.50
2022-10-07T07:47:51.187Z,13.50
2022-10-07T07:50:19.103Z,13.60
2022-10-07T07:52:45.723Z,13.50
2022-10-07T07:55:12.323Z,13.70
2022-10-07T07:57:38.895Z,14.50
2022-10-07T08:00:05.815Z,13.90
2022-10-07T08:02:33.103Z,14.20
2022-10-07T08:04:59.779Z,14.30
2022-10-07T08:07:26.846Z,14.40
2022-10-07T08:09:53.688Z,14.50
2022-10-07T08:12:22.149Z,15.10
2022-10-07T08:14:48.825Z,14.70
2022-10-07T08:17:15.387Z,14.90
2022-10-07T08:19:41.971Z,15.90
2022-10-07T08:22:09.417Z,15.50
2022-10-07T08:24:36.189Z,14.90
2022-10-07T08:27:02.796Z,15.10
2022-10-07T08:29:30.260Z,16.70
2022-10-07T08:31:56.894Z,15.00
2022-10-07T08:34:23.559Z,15.00
2022-10-07T08:36:51.828Z,14.80
2022-10-07T08:39:18.424Z,15.10
2022-10-07T08:42:03.072Z,15.20
2022-10-07T08:44:36.039Z,15.30
2022-10-07T08:47:06.511Z,15.30
2022-10-07T08:49:54.454Z,15.20
2022-10-07T08:52:26.356Z,15.30
2022-10-07T08:54:53.034Z,15.40
2022-10-07T08:57:25.057Z,16.60
2022-10-07T08:59:55.012Z,15.50
2022-10-07T09:02:21.678Z,16.70
2022-10-07T09:05:00.558Z,15.80
2022-10-07T09:07:32.424Z,15.90
2022-10-07T09:10:01.634Z,16.00
2022-10-07T09:12:34.288Z,16.10
2022-10-07T09:15:02.090Z,16.10
2022-10-07T09:17:35.395Z,16.10
2022-10-07T09:20:04.440Z,16.10
2022-10-07T09:22:32.501Z,16.20
2022-10-07T09:25:09.032Z,16.20
2022-10-07T09:27:38.094Z,16.40
2022-10-07T09:30:05.899Z,16.50
2022-10-07T09:32:33.079Z,16.70
2022-10-07T09:35:03.218Z,16.80
2022-10-07T09:37:29.926Z,16.90
2022-10-07T09:40:16.464Z,17.10
2022-10-07T09:42:43.868Z,17.30
2022-10-07T09:45:22.511Z,17.40
2022-10-07T09:47:53.313Z,17.50
2022-10-07T09:50:52.588Z,17.50
2022-10-07T09:53:23.856Z,17.60
2022-10-07T09:55:52.448Z,17.60
2022-10-07T09:58:30.494Z,17.70
2022-10-07T10:00:58.164Z,17.80
2022-10-07T10:03:32.350Z,17.80
2022-10-07T10:06:00.733Z,17.40
2022-10-07T10:08:30.524Z,17.60
2022-10-07T10:10:58.387Z,17.30
2022-10-07T10:13:45.232Z,17.10
2022-10-07T10:16:24.369Z,17.30
2022-10-07T10:18:54.931Z,17.20
2022-10-07T10:21:36.817Z,17.40
2022-10-07T10:24:06.216Z,17.40
2022-10-07T10:26:39.026Z,17.60
2022-10-07T10:29:20.088Z,17.80
2022-10-07T10:31:49.709Z,17.70
2022-10-07T10:34:35.279Z,17.40
2022-10-07T10:37:20.354Z,17.20
2022-10-07T10:40:07.360Z,17.10
2022-10-07T10:42:52.801Z,16.90
2022-10-07T10:45:25.509Z,17.20
2022-10-07T10:48:11.280Z,17.40
2022-10-07T10:50:52.335Z,17.70
2022-10-07T10:53:21.893Z,17.90
2022-10-07T10:55:48.656Z,17.80
2022-10-07T10:58:15.244Z,18.00
2022-10-07T11:00:50.300Z,18.20
2022-10-07T11:03:26.126Z,18.20
2022-10-07T11:05:54.971Z,18.40
2022-10-07T11:08:37.646Z,18.40
2022-10-07T11:11:06.556Z,18.40
2022-10-07T11:13:40.943Z,18.40
2022-10-07T11:16:13.751Z,18.40
2022-10-07T11:18:42.079Z,18.10
2022-10-07T11:21:12.515Z,18.10
2022-10-07T11:23:57.535Z,18.50
2022-10-07T11:26:41.766Z,18.90
2022-10-07T11:29:31.281Z,19.30
2022-10-07T11:32:03.155Z,19.80
2022-10-07T11:34:40.480Z,20.10
2022-10-07T11:37:11.135Z,20.00
2022-10-07T11:39:38.364Z,20.10
2022-10-07T11:42:13.431Z,21.00
2022-10-07T11:44:54.092Z,21.00
2022-10-07T11:47:23.535Z,22.00
2022-10-07T11:49:57.736Z,22.60
2022-10-07T11:52:29.604Z,23.00
2022-10-07T11:55:07.278Z,24.00
2022-10-07T11:57:35.984Z,24.50
2022-10-07T12:00:08.211Z,25.90
2022-10-07T12:02:39.605Z,27.20
2022-10-07T12:05:08.469Z,27.40
2022-10-07T12:07:37.439Z,27.50
2022-10-07T12:10:04.018Z,28.00
2022-10-07T12:12:43.241Z,28.40
2022-10-07T12:15:28.192Z,29.10
2022-10-07T12:18:06.944Z,29.70
2022-10-07T12:20:34.561Z,30.00
2022-10-07T12:23:22.661Z,30.00
2022-10-07T12:25:53.391Z,29.90
2022-10-07T12:28:34.428Z,30.80
2022-10-07T12:31:02.319Z,31.10
2022-10-07T12:33:33.471Z,30.00
2022-10-07T12:36:21.255Z,30.40
2022-10-07T12:39:00.030Z,29.60
2022-10-07T12:41:27.797Z,29.40
2022-10-07T12:44:06.484Z,29.40
2022-10-07T12:46:51.047Z,29.60
2022-10-07T12:49:29.600Z,30.20
2022-10-07T12:51:58.736Z,29.90
2022-10-07T12:54:32.117Z,28.50
2022-10-07T12:56:58.887Z,28.30
2022-10-07T12:59:44.263Z,28.10
2022-10-07T13:02:17.370Z,27.40
2022-10-07T13:04:58.015Z,27.50
2022-10-07T13:07:30.727Z,25.60
2022-10-07T13:10:12.887Z,24.90
2022-10-07T13:12:46.394Z,24.10
2022-10-07T13:15:19.489Z,23.60
2022-10-07T13:18:08.611Z,23.10
2022-10-07T13:20:41.880Z,22.90
2022-10-07T13:23:16.815Z,22.80
2022-10-07T13:25:45.323Z,22.10
2022-10-07T13:28:16.526Z,23.00
2022-10-07T13:30:44.013Z,23.70
2022-10-07T13:33:15.601Z,24.80
2022-10-07T13:35:42.172Z,25.20
2022-10-07T13:38:25.480Z,25.40
2022-10-07T13:40:53.892Z,26.00
2022-10-07T13:43:21.251Z,26.30
2022-10-07T13:45:47.879Z,26.30
2022-10-07T13:48:20.824Z,25.80
2022-10-07T13:50:50.265Z,25.30
2022-10-07T13:53:21.678Z,25.10
2022-10-07T13:55:48.373Z,24.80
2022-10-07T13:58:15.285Z,23.80
2022-10-07T14:00:44.253Z,23.50
2022-10-07T14:03:17.693Z,23.50
2022-10-07T14:05:49.060Z,23.40
2022-10-07T14:08:22.619Z,23.40
2022-10-07T14:10:58.612Z,23.20
2022-10-07T14:13:28.895Z,23.30
2022-10-07T14:15:56.311Z,23.40
2022-10-07T14:18:23.277Z,23.50
2022-10-07T14:20:54.499Z,23.50
2022-10-07T14:23:21.609Z,23.20
2022-10-07T14:25:48.171Z,23.00
2022-10-07T14:28:19.016Z,23.00
2022-10-07T14:31:26.022Z,22.90
2022-10-07T14:34:17.587Z,23.30
2022-10-07T14:37:01.362Z,23.40
2022-10-07T14:39:50.139Z,23.60
2022-10-07T14:42:20.755Z,23.30
2022-10-07T14:44:47.870Z,22.40
2022-10-07T14:47:15.738Z,21.90
2022-10-07T14:49:42.432Z,21.60
2022-10-07T14:52:17.816Z,21.30
2022-10-07T14:54:44.448Z,21.10
2022-10-07T14:57:11.180Z,20.70
2022-10-07T14:59:37.884Z,20.60
2022-10-07T15:02:04.621Z,20.40
2022-10-07T15:04:31.315Z,20.20
2022-10-07T15:06:58.094Z,19.90
2022-10-07T15:09:24.868Z,19.90
2022-10-07T15:11:51.492Z,19.90
2022-10-07T15:14:18.060Z,19.80
2022-10-07T15:16:44.869Z,19.80
2022-10-07T15:19:11.472Z,19.60
2022-10-07T15:21:38.136Z,19.50
2022-10-07T15:24:04.780Z,19.40
2022-10-07T15:26:31.474Z,19.30
2022-10-07T15:28:58.690Z,19.00
2022-10-07T15:31:26.850Z,18.90
2022-10-07T15:34:02.951Z,18.80
2022-10-07T15:36:29.607Z,18.80
2022-10-07T15:38:58.776Z,18.70
2022-10-07T15:41:36.218Z,18.70
2022-10-07T15:44:07.324Z,18.60
2022-10-07T15:46:34.912Z,18.50
2022-10-07T15:49:01.627Z,18.40
2022-10-07T15:51:29.397Z,18.30
2022-10-07T15:53:56.089Z,18.30
2022-10-07T15:56:22.757Z,18.10
2022-10-07T15:58:49.376Z,18.00
2022-10-07T16:01:16.027Z,17.90
2022-10-07T16:03:44.523Z,17.80
2022-10-07T16:06:14.126Z,17.60
2022-10-07T16:08:41.081Z,17.60
2022-10-07T16:11:08.923Z,17.50
2022-10-07T16:13:39.302Z,17.50
2022-10-07T16:16:07.389Z,17.40
2022-10-07T16:18:36.792Z,17.30
2022-10-07T16:21:04.365Z,17.20
2022-10-07T16:23:30.975Z,17.10
2022-10-07T16:26:02.308Z,17.00
2022-10-07T16:28:47.461Z,16.90
2022-10-07T16:31:14.055Z,16.90
2022-10-07T16:33:41.501Z,16.70
2022-10-07T16:36:12.199Z,16.60
2022-10-07T16:38:40.290Z,16.50
2022-10-07T16:41:07.053Z,16.40
2022-10-07T16:43:35.857Z,16.30
2022-10-07T16:46:06.425Z,16.20
2022-10-07T16:48:37.644Z,16.10
2022-10-07T16:51:05.493Z,16.00
2022-10-07T16:53:32.057Z,15.90
2022-10-07T16:56:01.137Z,15.90
2022-10-07T16:58:27.764Z,15.90
2022-10-07T17:01:00.238Z,15.70
2022-10-07T17:03:26.984Z,16.00
2022-10-07T17:05:59.251Z,15.60
2022-10-07T17:08:25.903Z,15.50
2022-10-07T17:10:52.537Z,15.40
2022-10-07T17:13:19.119Z,16.50
2022-10-07T17:15:49.164Z,15.40
2022-10-07T17:18:19.193Z,15.30
2022-10-07T17:20:49.524Z,15.20
2022-10-07T17:23:16.842Z,15.20
2022-10-07T17:25:46.240Z,15.20
2022-10-07T17:28:13.711Z,16.20
2022-10-07T17:30:40.500Z,14.90
2022-10-07T17:33:07.624Z,14.90
2022-10-07T17:35:34.670Z,14.90
2022-10-07T17:38:02.181Z,15.60
2022-10-07T17:40:29.744Z,14.70
2022-10-07T17:42:58.792Z,14.70
2022-10-07T17:45:25.515Z,14.60
2022-10-07T17:47:54.395Z,14.50
2022-10-07T17:50:20.998Z,16.00
2022-10-07T17:52:47.653Z,14.50
2022-10-07T17:55:14.261Z,15.10
2022-10-07T17:57:40.823Z,14.20
2022-10-07T18:00:08.085Z,14.10
2022-10-07T18:02:35.096Z,14.00
2022-10-07T18:05:01.746Z,14.50
2022-10-07T18:07:29.166Z,14.20
2022-10-07T18:09:55.746Z,13.70
2022-10-07T18:12:40.894Z,13.90
2022-10-07T18:15:20.949Z,13.80
2022-10-07T18:17:50.677Z,13.70
2022-10-07T18:20:21.616Z,14.20
2022-10-07T18:22:53.640Z,13.60
2022-10-07T18:25:20.202Z,13.50
2022-10-07T18:27:47.222Z,13.50
2022-10-07T18:30:14.112Z,13.40
2022-10-07T18:32:40.805Z,13.40
2022-10-07T18:35:07.583Z,13.40
2022-10-07T18:37:34.368Z,13.30
2022-10-07T18:40:00.936Z,13.30
2022-10-07T18:42:27.530Z,13.30
2022-10-07T18:44:54.952Z,13.10
2022-10-07T18:47:21.667Z,13.10
2022-10-07T18:49:48.289Z,13.10
2022-10-07T18:52:14.869Z,13.20
2022-10-07T18:54:41.516Z,14.80
2022-10-07T18:57:08.088Z,12.90
2022-10-07T18:59:34.643Z,12.80
2022-10-07T19:02:01.401Z,12.80
2022-10-07T19:04:29.095Z,12.80
2022-10-07T19:06:55.747Z,13.00
2022-10-07T19:09:22.984Z,12.90
2022-10-07T19:11:49.749Z,12.60
2022-10-07T19:14:16.315Z,13.80
2022-10-07T19:16:49.057Z,12.50
2022-10-07T19:19:20.088Z,12.50
2022-10-07T19:21:55.758Z,12.40
2022-10-07T19:24:45.849Z,12.50
2022-10-07T19:27:12.524Z,12.30
2022-10-07T19:29:39.382Z,12.30
2022-10-07T19:32:08.639Z,12.30
2022-10-07T19:34:35.556Z,12.30
2022-10-07T19:37:02.206Z,12.20
2022-10-07T19:39:28.768Z,12.10
2022-10-07T19:41:57.356Z,12.10
2022-10-07T19:44:24.207Z,12.10
2022-10-07T19:46:51.432Z,12.00
2022-10-07T19:49:18.349Z,11.90
2022-10-07T19:51:45.498Z,12.30
2022-10-07T19:54:13.170Z,11.90
2022-10-07T19:56:40.496Z,11.90
2022-10-07T19:59:08.746Z,11.80
2022-10-07T20:01:37.267Z,11.80
2022-10-07T20:04:05.425Z,11.70
2022-10-07T20:06:32.384Z,11.70
2022-10-07T20:08:59.178Z,11.60
2022-10-07T20:11:27.655Z,12.20
2022-10-07T20:13:54.407Z,11.60
2022-10-07T20:16:21.913Z,12.60
2022-10-07T20:18:49.877Z,11.80
2022-10-07T20:21:17.889Z,11.50
2022-10-07T20:23:45.840Z,11.50
2022-10-07T20:26:18.916Z,11.70
2022-10-07T20:28:46.131Z,11.50
2022-10-07T20:31:13.867Z,11.40
2022-10-07T20:33:44.604Z,12.70
2022-10-07T20:36:13.128Z,11.40
2022-10-07T20:38:58.397Z,11.40
2022-10-07T20:41:43.963Z,11.30
2022-10-07T20:44:11.474Z,11.40
2022-10-07T20:46:38.411Z,11.90
2022-10-07T20:49:21.079Z,11.30
2022-10-07T20:51:55.308Z,11.30
2022-10-07T20:54:22.721Z,11.30
2022-10-07T20:56:50.999Z,11.60
2022-10-07T20:59:17.897Z,11.20
2022-10-07T21:01:44.858Z,11.20
2022-10-07T21:04:12.788Z,11.20
2022-10-07T21:06:39.629Z,11.10
2022-10-07T21:09:06.941Z,11.10
2022-10-07T21:11:33.609Z,11.10
2022-10-07T21:14:00.171Z,11.10
2022-10-07T21:16:27.650Z,11.00
2022-10-07T21:18:54.561Z,11.00
2022-10-07T21:21:21.767Z,11.30
2022-10-07T21:23:49.162Z,11.00
2022-10-07T21:26:16.388Z,10.90
2022-10-07T21:28:43.068Z,10.90
2022-10-07T21:31:11.999Z,10.90
2022-10-07T21:33:39.804Z,11.50
2022-10-07T21:36:07.478Z,10.80
2022-10-07T21:38:34.582Z,10.90
2022-10-07T21:41:11.939Z,10.80
2022-10-07T21:43:39.029Z,10.80
2022-10-07T21:46:05.677Z,10.70
2022-10-07T21:48:32.357Z,10.70
2022-10-07T21:50:59.793Z,10.70
2022-10-07T21:53:26.756Z,10.70
2022-10-07T21:55:53.595Z,10.60
2022-10-07T21:58:21.388Z,10.60
2022-10-07T22:00:48.069Z,11.50
2022-10-07T22:03:14.878Z,10.70
2022-10-07T22:05:41.760Z,10.80
2022-10-07T22:08:34.086Z,10.80
2022-10-07T22:11:09.520Z,10.90
2022-10-07T22:13:37.720Z,10.90
2022-10-07T22:16:14.934Z,10.90
2022-10-07T22:18:51.744Z,10.90
2022-10-07T22:21:23.086Z,10.90
2022-10-07T22:23:53.965Z,11.00
2022-10-07T22:26:21.992Z,10.90
2022-10-07T22:28:49.696Z,10.90
2022-10-07T22:31:16.653Z,10.80
2022-10-07T22:33:43.902Z,10.80
2022-10-07T22:36:11.661Z,10.80
2022-10-07T22:38:40.794Z,10.70
2022-10-07T22:41:08.573Z,10.70
2022-10-07T22:43:36.412Z,10.70
2022-10-07T22:46:03.070Z,10.60
2022-10-07T22:48:31.389Z,10.60
2022-10-07T22:51:08.388Z,10.60
2022-10-07T22:53:35.949Z,10.60
2022-10-07T22:56:07.074Z,10.50
2022-10-07T22:58:34.332Z,10.50
2022-10-07T23:01:04.429Z,10.40
2022-10-07T23:03:31.162Z,10.40
2022-10-07T23:06:00.645Z,11.60
2022-10-07T23:08:27.380Z,10.30
2022-10-07T23:10:57.479Z,10.30
2022-10-07T23:13:26.947Z,10.30
2022-10-07T23:15:56.715Z,10.20
2022-10-07T23:18:23.332Z,10.20
2022-10-07T23:20:57.300Z,10.20
2022-10-07T23:23:25.308Z,10.10
2022-10-07T23:25:52.102Z,10.10
2022-10-07T23:28:19.455Z,10.10
2022-10-07T23:30:46.160Z,10.00
2022-10-07T23:33:13.617Z,10.00
2022-10-07T23:35:40.769Z,10.00
2022-10-07T23:38:07.554Z,10.00
2022-10-07T23:40:34.113Z,10.00
2022-10-07T23:43:00.716Z,9.90
2022-10-07T23:45:27.536Z,10.00
2022-10-07T23:47:54.264Z,10.00
2022-10-07T23:50:20.827Z,9.90
2022-10-07T23:52:47.906Z,9.90
2022-10-07T23:55:14.731Z,9.90
2022-10-07T23:57:41.382Z,9.90
